sensor_id;sensor_type;location;lat;lon;timestamp;pressure;altitude;pressure_sealevel;temperature;humidity
4123;BME280;2075;51.062;6.920;2023-07-31T00:00:56;-9649.03;;;-144.48;100.00
4123;BME280;2075;51.062;6.920;2023-07-31T00:03:42;-10657.44;;;-144.48;100.00
4123;BME280;2075;51.062;6.920;2023-07-31T00:06:29;-9901.19;;;-144.48;100.00
4123;BME280;2075;51.062;6.920;2023-07-31T00:09:14;-10405.38;;;-144.48;100.00
4123;BME280;2075;51.062;6.920;2023-07-31T00:11:59;-10405.38;;;-144.48;100.00
4123;BME280;2075;51.062;6.920;2023-07-31T00:14:44;-10657.44;;;-144.48;100.00
4123;BME280;2075;51.062;6.920;2023-07-31T00:17:30;-10153.28;;;-144.48;100.00
4123;BME280;2075;51.062;6.920;2023-07-31T00:20:15;-9396.91;;;-144.48;100.00
4123;BME280;2075;51.062;6.920;2023-07-31T00:23:02;-8388.09;;;-144.48;100.00
4123;BME280;2075;51.062;6.920;2023-07-31T00:25:47;-7883.59;;;-144.48;100.00
4123;BME280;2075;51.062;6.920;2023-07-31T00:28:33;-7126.69;;;-144.48;100.00
4123;BME280;2075;51.062;6.920;2023-07-31T00:31:19;-6621.97;;;-144.48;100.00
4123;BME280;2075;51.062;6.920;2023-07-31T00:34:06;-5612.34;;;-144.48;100.00
4123;BME280;2075;51.062;6.920;2023-07-31T00:36:53;-4854.91;;;-144.48;100.00
4123;BME280;2075;51.062;6.920;2023-07-31T00:39:40;-4349.84;;;-144.48;100.00
4123;BME280;2075;51.062;6.920;2023-07-31T00:42:25;-2581.53;;;-144.48;100.00
4123;BME280;2075;51.062;6.920;2023-07-31T00:45:11;199.19;;;-144.48;100.00
4123;BME280;2075;51.062;6.920;2023-07-31T00:47:56;957.97;;;-144.48;100.00
4123;BME280;2075;51.062;6.920;2023-07-31T00:50:42;199.19;;;-144.48;100.00
4123;BME280;2075;51.062;6.920;2023-07-31T00:53:27;-559.44;;;-144.48;100.00
4123;BME280;2075;51.062;6.920;2023-07-31T00:56:14;199.19;;;-144.48;100.00
4123;BME280;2075;51.062;6.920;2023-07-31T00:58:59;1716.94;;;-144.48;100.00
4123;BME280;2075;51.062;6.920;2023-07-31T01:01:44;2223.00;;;-144.48;100.00
4123;BME280;2075;51.062;6.920;2023-07-31T01:04:30;3235.38;;;-144.48;100.00
4123;BME280;2075;51.062;6.920;2023-07-31T01:07:22;4754.53;;;-144.48;100.00
4123;BME280;2075;51.062;6.920;2023-07-31T01:10:14;5514.38;;;-144.48;100.00
4123;BME280;2075;51.062;6.920;2023-07-31T01:13:03;7034.56;;;-144.48;100.00
4123;BME280;2075;51.062;6.920;2023-07-31T01:15:48;4754.53;;;-144.48;100.00
4123;BME280;2075;51.062;6.920;2023-07-31T01:18:33;5767.69;;;-144.48;100.00
4123;BME280;2075;51.062;6.920;2023-07-31T01:21:28;9569.81;;;-144.48;100.00
4123;BME280;2075;51.062;6.920;2023-07-31T01:24:29;12360.81;;;-144.48;100.00
4123;BME280;2075;51.062;6.920;2023-07-31T01:27:23;18458.47;;;-144.48;100.00
4123;BME280;2075;51.062;6.920;2023-07-31T01:30:12;17695.66;;;-144.48;100.00
4123;BME280;2075;51.062;6.920;2023-07-31T01:33:02;17187.19;;;-144.48;100.00
4123;BME280;2075;51.062;6.920;2023-07-31T01:35:52;16933.00;;;-144.48;100.00
4123;BME280;2075;51.062;6.920;2023-07-31T01:38:38;17187.19;;;-144.48;100.00
4123;BME280;2075;51.062;6.920;2023-07-31T01:41:23;19730.22;;;-144.48;100.00
4123;BME280;2075;51.062;6.920;2023-07-31T01:44:10;17949.91;;;-144.48;100.00
4123;BME280;2075;51.062;6.920;2023-07-31T01:46:55;17949.91;;;-144.48;100.00
4123;BME280;2075;51.062;6.920;2023-07-31T01:49:41;18712.78;;;-144.48;100.00
4123;BME280;2075;51.062;6.920;2023-07-31T01:52:26;22020.63;;;-144.48;100.00
4123;BME280;2075;51.062;6.920;2023-07-31T01:55:12;23548.44;;;-144.48;100.00
4123;BME280;2075;51.062;6.920;2023-07-31T01:57:57;23039.09;;;-144.48;100.00
4123;BME280;2075;51.062;6.920;2023-07-31T02:00:44;22784.44;;;-144.48;100.00
4123;BME280;2075;51.062;6.920;2023-07-31T02:03:30;20239.06;;;-144.48;100.00
4123;BME280;2075;51.062;6.920;2023-07-31T02:06:15;16933.00;;;-144.48;100.00
4123;BME280;2075;51.062;6.920;2023-07-31T02:09:01;18204.19;;;-144.48;100.00
4123;BME280;2075;51.062;6.920;2023-07-31T02:11:50;18458.47;;;-144.48;100.00
4123;BME280;2075;51.062;6.920;2023-07-31T02:14:35;17949.91;;;-144.48;100.00
4123;BME280;2075;51.062;6.920;2023-07-31T02:17:22;17441.41;;;-144.48;100.00
4123;BME280;2075;51.062;6.920;2023-07-31T02:20:08;22020.63;;;-144.48;100.00
4123;BME280;2075;51.062;6.920;2023-07-31T02:22:53;20239.06;;;-144.48;100.00
4123;BME280;2075;51.062;6.920;2023-07-31T02:25:39;19984.66;;;-144.48;100.00
4123;BME280;2075;51.062;6.920;2023-07-31T02:28:24;19221.47;;;-144.48;100.00
4123;BME280;2075;51.062;6.920;2023-07-31T02:31:10;21002.47;;;-144.48;100.00
4123;BME280;2075;51.062;6.920;2023-07-31T02:33:56;19221.47;;;-144.48;100.00
4123;BME280;2075;51.062;6.920;2023-07-31T02:36:42;20748.00;;;-144.48;100.00
4123;BME280;2075;51.062;6.920;2023-07-31T02:39:27;22784.44;;;-144.48;100.00
4123;BME280;2075;51.062;6.920;2023-07-31T02:42:13;21257.00;;;-144.48;100.00
4123;BME280;2075;51.062;6.920;2023-07-31T02:44:58;18458.47;;;-144.48;100.00
4123;BME280;2075;51.062;6.920;2023-07-31T02:47:44;19221.47;;;-144.48;100.00
4123;BME280;2075;51.062;6.920;2023-07-31T02:50:31;17441.41;;;-144.48;100.00
4123;BME280;2075;51.062;6.920;2023-07-31T02:53:17;17949.91;;;-144.48;100.00
4123;BME280;2075;51.062;6.920;2023-07-31T02:56:02;14138.13;;;-144.48;100.00
4123;BME280;2075;51.062;6.920;2023-07-31T02:58:48;13630.22;;;-144.48;100.00
4123;BME280;2075;51.062;6.920;2023-07-31T03:01:33;13884.19;;;-144.48;100.00
4123;BME280;2075;51.062;6.920;2023-07-31T03:04:18;13122.41;;;-144.48;100.00
4123;BME280;2075;51.062;6.920;2023-07-31T03:07:06;14646.13;;;-144.48;100.00
4123;BME280;2075;51.062;6.920;2023-07-31T03:09:51;14646.13;;;-144.48;100.00
4123;BME280;2075;51.062;6.920;2023-07-31T03:12:36;13376.31;;;-144.48;100.00
4123;BME280;2075;51.062;6.920;2023-07-31T03:15:22;12107.00;;;-144.48;100.00
4123;BME280;2075;51.062;6.920;2023-07-31T03:18:08;13376.31;;;-144.48;100.00
4123;BME280;2075;51.062;6.920;2023-07-31T03:20:53;14392.13;;;-144.48;100.00
4123;BME280;2075;51.062;6.920;2023-07-31T03:23:40;17187.19;;;-144.48;100.00
4123;BME280;2075;51.062;6.920;2023-07-31T03:26:27;17695.66;;;-144.48;100.00
4123;BME280;2075;51.062;6.920;2023-07-31T03:29:13;15916.41;;;-144.48;100.00
4123;BME280;2075;51.062;6.920;2023-07-31T03:31:59;14900.13;;;-144.48;100.00
4123;BME280;2075;51.062;6.920;2023-07-31T03:34:45;12360.81;;;-144.48;100.00
4123;BME280;2075;51.062;6.920;2023-07-31T03:37:30;15154.19;;;-144.48;100.00
4123;BME280;2075;51.062;6.920;2023-07-31T03:40:17;16424.66;;;-144.48;100.00
4123;BME280;2075;51.062;6.920;2023-07-31T03:43:03;19475.84;;;-144.48;100.00
4123;BME280;2075;51.062;6.920;2023-07-31T03:45:48;11345.63;;;-144.48;100.00
4123;BME280;2075;51.062;6.920;2023-07-31T03:48:33;5007.78;;;-144.48;100.00
4123;BME280;2075;51.062;6.920;2023-07-31T03:51:19;2223.00;;;-144.48;100.00
4123;BME280;2075;51.062;6.920;2023-07-31T03:54:04;2476.06;;;-144.48;100.00
4123;BME280;2075;51.062;6.920;2023-07-31T03:56:52;1210.94;;;-144.48;100.00
4123;BME280;2075;51.062;6.920;2023-07-31T03:59:38;3235.38;;;-144.48;100.00
4123;BME280;2075;51.062;6.920;2023-07-31T04:02:23;3235.38;;;-144.48;100.00
4123;BME280;2075;51.062;6.920;2023-07-31T04:05:08;2729.16;;;-144.48;100.00
4123;BME280;2075;51.062;6.920;2023-07-31T04:07:54;3994.88;;;-144.48;100.00
4123;BME280;2075;51.062;6.920;2023-07-31T04:10:40;2729.16;;;-144.48;100.00
4123;BME280;2075;51.062;6.920;2023-07-31T04:13:26;4754.53;;;-144.48;100.00
4123;BME280;2075;51.062;6.920;2023-07-31T04:16:13;4501.28;;;-144.48;100.00
4123;BME280;2075;51.062;6.920;2023-07-31T04:18:59;6274.38;;;-144.48;100.00
4123;BME280;2075;51.062;6.920;2023-07-31T04:21:44;4754.53;;;-144.48;100.00
4123;BME280;2075;51.062;6.920;2023-07-31T04:24:30;8048.44;;;-144.48;100.00
4123;BME280;2075;51.062;6.920;2023-07-31T04:27:15;7794.94;;;-144.48;100.00
4123;BME280;2075;51.062;6.920;2023-07-31T04:30:02;8301.94;;;-144.48;100.00
4123;BME280;2075;51.062;6.920;2023-07-31T04:32:48;8809.03;;;-144.48;100.00
4123;BME280;2075;51.062;6.920;2023-07-31T04:35:33;5261.06;;;-144.48;100.00
4123;BME280;2075;51.062;6.920;2023-07-31T04:38:19;3741.69;;;-144.48;100.00
4123;BME280;2075;51.062;6.920;2023-07-31T04:41:04;957.97;;;-144.48;100.00
4123;BME280;2075;51.062;6.920;2023-07-31T04:43:50;-559.44;;;-144.48;100.00
4123;BME280;2075;51.062;6.920;2023-07-31T04:46:37;-1570.63;;;-144.48;100.00
4123;BME280;2075;51.062;6.920;2023-07-31T04:49:22;3235.38;;;-144.48;100.00
4123;BME280;2075;51.062;6.920;2023-07-31T04:52:10;6274.38;;;-144.48;100.00
4123;BME280;2075;51.062;6.920;2023-07-31T04:54:55;6274.38;;;-144.48;100.00
4123;BME280;2075;51.062;6.920;2023-07-31T04:57:41;5514.38;;;-144.48;100.00
4123;BME280;2075;51.062;6.920;2023-07-31T05:00:26;8809.03;;;-144.48;100.00
4123;BME280;2075;51.062;6.920;2023-07-31T05:03:13;8048.44;;;-144.48;100.00
4123;BME280;2075;51.062;6.920;2023-07-31T05:05:58;9823.44;;;-144.48;100.00
4123;BME280;2075;51.062;6.920;2023-07-31T05:08:44;16424.66;;;-144.48;100.00
4123;BME280;2075;51.062;6.920;2023-07-31T05:11:29;26351.25;;;-144.48;100.00
4123;BME280;2075;51.062;6.920;2023-07-31T05:14:15;35796.19;;;-144.48;100.00
4123;BME280;2075;51.062;6.920;2023-07-31T05:17:01;43473.84;;;-144.48;100.00
4123;BME280;2075;51.062;6.920;2023-07-31T05:19:48;50912.28;;;-144.48;100.00
4123;BME280;2075;51.062;6.920;2023-07-31T05:22:33;55794.63;;;-144.48;100.00
4123;BME280;2075;51.062;6.920;2023-07-31T05:25:19;50142.03;;;-144.48;100.00
4123;BME280;2075;51.062;6.920;2023-07-31T05:28:04;50912.28;;;-144.48;100.00
4123;BME280;2075;51.062;6.920;2023-07-31T05:30:49;60941.53;;;-144.48;100.00
4123;BME280;2075;51.062;6.920;2023-07-31T05:33:35;73964.16;;;-144.48;100.00
4123;BME280;2075;51.062;6.920;2023-07-31T05:36:21;68841.91;;;-144.48;100.00
4123;BME280;2075;51.062;6.920;2023-07-31T05:39:07;77067.84;;;-144.48;100.00
4123;BME280;2075;51.062;6.920;2023-07-31T05:41:52;77274.06;;;-144.48;100.00
4123;BME280;2075;51.062;6.920;2023-07-31T05:44:38;75547.97;;;-144.48;100.00
4123;BME280;2075;51.062;6.920;2023-07-31T05:47:23;69003.25;;;-144.48;100.00
4123;BME280;2075;51.062;6.920;2023-07-31T05:50:09;63775.66;;;-144.48;100.00
4123;BME280;2075;51.062;6.920;2023-07-31T05:52:55;62487.13;;;-144.48;100.00
4123;BME280;2075;51.062;6.920;2023-07-31T05:55:41;65322.56;;;-144.48;100.00
4123;BME280;2075;51.062;6.920;2023-07-31T05:58:26;61199.09;;;-144.48;100.00
4123;BME280;2075;51.062;6.920;2023-07-31T06:01:12;56051.78;;;-144.48;100.00
4123;BME280;2075;51.062;6.920;2023-07-31T06:03:57;46293.41;;;-144.48;100.00
4123;BME280;2075;51.062;6.920;2023-07-31T06:06:43;31198.03;;;-144.48;100.00
4123;BME280;2075;51.062;6.920;2023-07-31T06:09:30;25076.94;;;-144.48;100.00
4123;BME280;2075;51.062;6.920;2023-07-31T06:12:15;22529.81;;;-144.48;100.00
4123;BME280;2075;51.062;6.920;2023-07-31T06:15:03;14646.13;;;-144.48;100.00
4123;BME280;2075;51.062;6.920;2023-07-31T06:17:50;13630.22;;;-144.48;100.00
4123;BME280;2075;51.062;6.920;2023-07-31T06:20:35;8301.94;;;-144.48;100.00
4123;BME280;2075;51.062;6.920;2023-07-31T06:23:21;6527.75;;;-144.48;100.00
4123;BME280;2075;51.062;6.920;2023-07-31T06:26:07;9569.81;;;-144.48;100.00
4123;BME280;2075;51.062;6.920;2023-07-31T06:28:53;12868.53;;;-144.48;100.00
4123;BME280;2075;51.062;6.920;2023-07-31T06:31:38;12614.66;;;-144.48;100.00
4123;BME280;2075;51.062;6.920;2023-07-31T06:34:24;13122.41;;;-144.48;100.00
4123;BME280;2075;51.062;6.920;2023-07-31T06:37:09;16424.66;;;-144.48;100.00
4123;BME280;2075;51.062;6.920;2023-07-31T06:39:55;26096.34;;;-144.48;100.00
4123;BME280;2075;51.062;6.920;2023-07-31T06:42:42;30432.28;;;-144.48;100.00
4123;BME280;2075;51.062;6.920;2023-07-31T06:45:28;33751.78;;;-144.48;100.00
4123;BME280;2075;51.062;6.920;2023-07-31T06:48:13;35029.38;;;-144.48;100.00
4123;BME280;2075;51.062;6.920;2023-07-31T06:50:58;30942.75;;;-144.48;100.00
4123;BME280;2075;51.062;6.920;2023-07-31T06:53:44;28391.13;;;-144.48;100.00
4123;BME280;2075;51.062;6.920;2023-07-31T06:56:30;38609.28;;;-144.48;100.00
4123;BME280;2075;51.062;6.920;2023-07-31T06:59:17;45011.50;;;-144.48;100.00
4123;BME280;2075;51.062;6.920;2023-07-31T07:02:03;46549.84;;;-144.48;100.00
4123;BME280;2075;51.062;6.920;2023-07-31T07:04:49;42449.16;;;-144.48;100.00
4123;BME280;2075;51.062;6.920;2023-07-31T07:07:35;39376.91;;;-144.48;100.00
4123;BME280;2075;51.062;6.920;2023-07-31T07:10:22;45780.56;;;-144.48;100.00
4123;BME280;2075;51.062;6.920;2023-07-31T07:13:09;45780.56;;;-144.48;100.00
4123;BME280;2075;51.062;6.920;2023-07-31T07:15:58;50398.75;;;-144.48;100.00
4123;BME280;2075;51.062;6.920;2023-07-31T07:18:44;51169.06;;;-144.48;100.00
4123;BME280;2075;51.062;6.920;2023-07-31T07:21:30;41680.84;;;-144.48;100.00
4123;BME280;2075;51.062;6.920;2023-07-31T07:24:15;43986.31;;;-144.48;100.00
4123;BME280;2075;51.062;6.920;2023-07-31T07:27:01;47575.78;;;-144.48;100.00
4123;BME280;2075;51.062;6.920;2023-07-31T07:29:46;46549.84;;;-144.48;100.00
4123;BME280;2075;51.062;6.920;2023-07-31T07:32:33;37330.31;;;-144.48;100.00
4123;BME280;2075;51.062;6.920;2023-07-31T07:35:18;25331.78;;;-144.48;100.00
4123;BME280;2075;51.062;6.920;2023-07-31T07:38:04;15916.41;;;-144.48;100.00
4123;BME280;2075;51.062;6.920;2023-07-31T07:40:51;4248.06;;;-144.48;100.00
4123;BME280;2075;51.062;6.920;2023-07-31T07:43:37;1969.97;;;-144.48;100.00
4123;BME280;2075;51.062;6.920;2023-07-31T07:46:23;-53.69;;;-144.48;100.00
4123;BME280;2075;51.062;6.920;2023-07-31T07:49:10;-812.25;;;-144.48;100.00
4123;BME280;2075;51.062;6.920;2023-07-31T07:51:56;-812.25;;;-144.48;100.00
4123;BME280;2075;51.062;6.920;2023-07-31T07:54:41;-2581.53;;;-144.48;100.00
4123;BME280;2075;51.062;6.920;2023-07-31T07:57:26;-2834.19;;;-144.48;100.00
4123;BME280;2075;51.062;6.920;2023-07-31T08:00:13;4248.06;;;-144.48;100.00
4123;BME280;2075;51.062;6.920;2023-07-31T08:03:00;5261.06;;;-144.48;100.00
4123;BME280;2075;51.062;6.920;2023-07-31T08:05:47;11599.41;;;-144.48;100.00
4123;BME280;2075;51.062;6.920;2023-07-31T08:08:33;6527.75;;;-144.48;100.00
4123;BME280;2075;51.062;6.920;2023-07-31T08:11:19;7541.47;;;-144.48;100.00
4123;BME280;2075;51.062;6.920;2023-07-31T08:14:06;3994.88;;;-144.48;100.00
4123;BME280;2075;51.062;6.920;2023-07-31T08:16:51;1210.94;;;-144.48;100.00
4123;BME280;2075;51.062;6.920;2023-07-31T08:19:37;7541.47;;;-144.48;100.00
4123;BME280;2075;51.062;6.920;2023-07-31T08:22:24;10077.09;;;-144.48;100.00
4123;BME280;2075;51.062;6.920;2023-07-31T08:25:10;16424.66;;;-144.48;100.00
4123;BME280;2075;51.062;6.920;2023-07-31T08:27:56;14138.13;;;-144.48;100.00
4123;BME280;2075;51.062;6.920;2023-07-31T08:30:44;23548.44;;;-144.48;100.00
4123;BME280;2075;51.062;6.920;2023-07-31T08:33:31;36818.88;;;-144.48;100.00
4123;BME280;2075;51.062;6.920;2023-07-31T08:36:20;56051.78;;;-144.48;100.00
4123;BME280;2075;51.062;6.920;2023-07-31T08:39:10;75085.28;;;-144.48;100.00
4123;BME280;2075;51.062;6.920;2023-07-31T08:41:58;77999.91;;;-144.48;100.00
4123;BME280;2075;51.062;6.920;2023-07-31T08:44:44;71571.59;;;-144.48;100.00
4123;BME280;2075;51.062;6.920;2023-07-31T08:47:31;69366.28;;;-144.48;100.00
4123;BME280;2075;51.062;6.920;2023-07-31T08:50:18;81965.53;;;-144.48;100.00
4123;BME280;2075;51.062;6.920;2023-07-31T08:53:04;87808.97;;;-144.48;100.00
4123;BME280;2075;51.062;6.920;2023-07-31T08:55:52;80200.66;;;-144.48;100.00
4123;BME280;2075;51.062;6.920;2023-07-31T08:58:38;69164.59;;;-144.48;100.00
4123;BME280;2075;51.062;6.920;2023-07-31T09:01:24;81975.66;;;-144.48;100.00
4123;BME280;2075;51.062;6.920;2023-07-31T09:04:11;85315.56;;;-144.48;100.00
4123;BME280;2075;51.062;6.920;2023-07-31T09:07:02;87997.56;;;-144.48;100.00
4123;BME280;2075;51.062;6.920;2023-07-31T09:09:48;87877.91;;;-144.48;100.00
4123;BME280;2075;51.062;6.920;2023-07-31T09:12:35;84983.25;;;-144.48;100.00
4123;BME280;2075;51.062;6.920;2023-07-31T09:15:21;76144.13;;;-144.48;100.00
4123;BME280;2075;51.062;6.920;2023-07-31T09:18:09;74917.59;;;-144.48;100.00
4123;BME280;2075;51.062;6.920;2023-07-31T09:21:02;81680.09;;;-144.48;100.00
4123;BME280;2075;51.062;6.920;2023-07-31T09:23:47;81340.03;;;-144.48;100.00
4123;BME280;2075;51.062;6.920;2023-07-31T09:26:34;77490.38;;;-144.48;100.00
4123;BME280;2075;51.062;6.920;2023-07-31T09:29:22;67515.19;;;-144.48;100.00
4123;BME280;2075;51.062;6.920;2023-07-31T09:32:15;61456.66;;;-144.48;100.00
4123;BME280;2075;51.062;6.920;2023-07-31T09:35:01;85765.47;;;-144.48;100.00
4123;BME280;2075;51.062;6.920;2023-07-31T09:37:51;91615.34;;;-144.48;100.00
4123;BME280;2075;51.062;6.920;2023-07-31T09:40:38;92526.97;;;-144.48;100.00
4123;BME280;2075;51.062;6.920;2023-07-31T09:43:24;92620.38;;;-144.48;100.00
4123;BME280;2075;51.062;6.920;2023-07-31T09:46:14;92669.13;;;-144.48;100.00
4123;BME280;2075;51.062;6.920;2023-07-31T09:49:04;92730.03;;;-144.48;100.00
4123;BME280;2075;51.062;6.920;2023-07-31T09:51:50;92665.06;;;-144.48;100.00
4123;BME280;2075;51.062;6.920;2023-07-31T09:54:36;92719.88;;;-144.48;96.47
4123;BME280;2075;51.062;6.920;2023-07-31T09:57:22;92730.03;;;-144.48;98.13
4123;BME280;2075;51.062;6.920;2023-07-31T10:00:10;92693.50;;;-144.48;99.68
4123;BME280;2075;51.062;6.920;2023-07-31T10:03:00;92701.63;;;-144.48;97.50
4123;BME280;2075;51.062;6.920;2023-07-31T10:05:48;92730.03;;;-144.48;98.45
4123;BME280;2075;51.062;6.920;2023-07-31T10:08:36;92709.75;;;-144.48;100.00
4123;BME280;2075;51.062;6.920;2023-07-31T10:11:25;92717.84;;;-144.48;100.00
4123;BME280;2075;51.062;6.920;2023-07-31T10:14:13;92766.59;;;-144.48;98.29
4123;BME280;2075;51.062;6.920;2023-07-31T10:16:59;92701.63;;;-144.48;100.00
4123;BME280;2075;51.062;6.920;2023-07-31T10:19:46;92752.38;;;-144.48;99.21
4123;BME280;2075;51.062;6.920;2023-07-31T10:22:34;92746.28;;;-144.48;98.72
4123;BME280;2075;51.062;6.920;2023-07-31T10:25:21;92709.75;;;-144.48;100.00
4123;BME280;2075;51.062;6.920;2023-07-31T10:28:08;92693.50;;;-144.48;100.00
4123;BME280;2075;51.062;6.920;2023-07-31T10:30:55;92602.09;;;-144.48;100.00
4123;BME280;2075;51.062;6.920;2023-07-31T10:33:41;92238.63;;;-144.48;100.00
4123;BME280;2075;51.062;6.920;2023-07-31T10:36:29;91085.53;;;-144.48;100.00
4123;BME280;2075;51.062;6.920;2023-07-31T10:39:35;91422.47;;;-144.48;100.00
4123;BME280;2075;51.062;6.920;2023-07-31T10:42:27;91986.88;;;-144.48;100.00
4123;BME280;2075;51.062;6.920;2023-07-31T10:45:14;92587.91;;;-144.48;100.00
4123;BME280;2075;51.062;6.920;2023-07-31T10:48:13;92648.81;;;-144.48;98.82
4123;BME280;2075;51.062;6.920;2023-07-31T10:50:59;92608.19;;;-144.48;97.79
4123;BME280;2075;51.062;6.920;2023-07-31T10:53:47;92665.06;;;-144.48;100.00
4123;BME280;2075;51.062;6.920;2023-07-31T10:56:37;92575.72;;;-144.48;100.00
4123;BME280;2075;51.062;6.920;2023-07-31T10:59:26;92317.81;;;-144.48;100.00
4123;BME280;2075;51.062;6.920;2023-07-31T11:02:24;92502.59;;;-144.48;100.00
4123;BME280;2075;51.062;6.920;2023-07-31T11:05:11;92539.16;;;-144.48;100.00
4123;BME280;2075;51.062;6.920;2023-07-31T11:07:57;92504.63;;;-144.48;99.95
4123;BME280;2075;51.062;6.920;2023-07-31T11:10:44;92514.78;;;-144.48;94.59
4123;BME280;2075;51.062;6.920;2023-07-31T11:13:32;92549.31;;;-144.48;92.21
4123;BME280;2075;51.062;6.920;2023-07-31T11:16:22;92555.41;;;-144.48;90.59
4123;BME280;2075;51.062;6.920;2023-07-31T11:19:08;92526.97;;;-144.48;88.56
4123;BME280;2075;51.062;6.920;2023-07-31T11:21:55;92441.69;;;-144.48;83.86
4123;BME280;2075;51.062;6.920;2023-07-31T11:24:41;92323.91;;;-144.48;79.17
4123;BME280;2075;51.062;6.920;2023-07-31T11:27:29;92354.38;;;-144.48;76.91
4123;BME280;2075;51.062;6.920;2023-07-31T11:30:14;92443.72;;;-144.48;77.02
4123;BME280;2075;51.062;6.920;2023-07-31T11:33:01;92468.09;;;-144.48;77.60
4123;BME280;2075;51.062;6.920;2023-07-31T11:35:48;92596.00;;;-144.48;82.08
4123;BME280;2075;51.062;6.920;2023-07-31T11:38:34;92715.81;;;-144.48;86.47
4123;BME280;2075;51.062;6.920;2023-07-31T11:41:20;92681.31;;;-144.48;86.74
4123;BME280;2075;51.062;6.920;2023-07-31T11:44:07;92575.72;;;-144.48;82.53
4123;BME280;2075;51.062;6.920;2023-07-31T11:46:52;92520.88;;;-144.48;80.97
4123;BME280;2075;51.062;6.920;2023-07-31T11:49:37;92496.50;;;-144.48;79.33
4123;BME280;2075;51.062;6.920;2023-07-31T11:52:23;92622.41;;;-144.48;82.28
4123;BME280;2075;51.062;6.920;2023-07-31T11:55:10;92642.72;;;-144.48;84.64
4123;BME280;2075;51.062;6.920;2023-07-31T11:57:58;92608.19;;;-144.48;84.58
4123;BME280;2075;51.062;6.920;2023-07-31T12:00:46;92971.72;;;-144.48;84.88
4123;BME280;2075;51.062;6.920;2023-07-31T12:03:32;92565.56;;;-144.48;85.65
4123;BME280;2075;51.062;6.920;2023-07-31T12:06:19;92616.31;;;-144.48;84.32
4123;BME280;2075;51.062;6.920;2023-07-31T12:09:05;92699.59;;;-144.48;87.25
4123;BME280;2075;51.062;6.920;2023-07-31T12:11:51;92740.19;;;-144.48;88.29
4123;BME280;2075;51.062;6.920;2023-07-31T12:14:41;92780.81;;;-144.48;91.53
4123;BME280;2075;51.062;6.920;2023-07-31T12:17:28;92811.28;;;-144.48;92.32
4123;BME280;2075;51.062;6.920;2023-07-31T12:20:13;92788.94;;;-144.48;92.00
4123;BME280;2075;51.062;6.920;2023-07-31T12:22:59;92725.97;;;-144.48;91.70
4123;BME280;2075;51.062;6.920;2023-07-31T12:25:45;92766.59;;;-144.48;93.17
4123;BME280;2075;51.062;6.920;2023-07-31T12:28:32;92778.78;;;-144.48;93.42
4123;BME280;2075;51.062;6.920;2023-07-31T12:31:21;92721.91;;;-144.48;91.47
4123;BME280;2075;51.062;6.920;2023-07-31T12:34:16;92719.88;;;-144.48;93.21
4123;BME280;2075;51.062;6.920;2023-07-31T12:37:03;92780.81;;;-144.48;92.19
4123;BME280;2075;51.062;6.920;2023-07-31T12:39:49;92673.19;;;-144.48;89.87
4123;BME280;2075;51.062;6.920;2023-07-31T12:42:34;92616.31;;;-144.48;86.46
4123;BME280;2075;51.062;6.920;2023-07-31T12:45:20;92652.88;;;-144.48;84.46
4123;BME280;2075;51.062;6.920;2023-07-31T12:48:07;92598.03;;;-144.48;82.36
4123;BME280;2075;51.062;6.920;2023-07-31T12:50:54;92663.03;;;-144.48;82.15
4123;BME280;2075;51.062;6.920;2023-07-31T12:53:41;92677.25;;;-144.48;83.55
4123;BME280;2075;51.062;6.920;2023-07-31T12:56:27;92754.41;;;-144.48;87.52
4123;BME280;2075;51.062;6.920;2023-07-31T12:59:13;92663.03;;;-144.48;85.75
4123;BME280;2075;51.062;6.920;2023-07-31T13:01:59;92644.75;;;-144.48;83.86
4123;BME280;2075;51.062;6.920;2023-07-31T13:04:45;92616.31;;;-144.48;83.32
4123;BME280;2075;51.062;6.920;2023-07-31T13:07:32;92561.50;;;-144.48;81.89
4123;BME280;2075;51.062;6.920;2023-07-31T13:10:19;92616.31;;;-144.48;82.36
4123;BME280;2075;51.062;6.920;2023-07-31T13:13:05;92618.34;;;-144.48;81.73
4123;BME280;2075;51.062;6.920;2023-07-31T13:15:50;92411.22;;;-144.48;81.34
4123;BME280;2075;51.062;6.920;2023-07-31T13:18:36;92687.41;;;-144.48;82.71
4123;BME280;2075;51.062;6.920;2023-07-31T13:21:22;92656.94;;;-144.48;83.29
4123;BME280;2075;51.062;6.920;2023-07-31T13:24:10;92612.25;;;-144.48;84.75
4123;BME280;2075;51.062;6.920;2023-07-31T13:26:56;92624.44;;;-144.48;83.17
4123;BME280;2075;51.062;6.920;2023-07-31T13:29:42;92545.25;;;-144.48;81.22
4123;BME280;2075;51.062;6.920;2023-07-31T13:32:29;92492.44;;;-144.48;75.56
4123;BME280;2075;51.062;6.920;2023-07-31T13:35:18;92360.47;;;-144.48;71.67
4123;BME280;2075;51.062;6.920;2023-07-31T13:38:15;91964.53;;;-144.48;66.90
4123;BME280;2075;51.062;6.920;2023-07-31T13:41:03;92120.88;;;-144.48;65.35
4123;BME280;2075;51.062;6.920;2023-07-31T13:43:49;92202.09;;;-144.48;61.00
4123;BME280;2075;51.062;6.920;2023-07-31T13:46:35;92185.84;;;-144.48;62.02
4123;BME280;2075;51.062;6.920;2023-07-31T13:49:22;92549.31;;;-144.48;61.40
4123;BME280;2075;51.062;6.920;2023-07-31T13:52:07;92327.97;;;-144.48;65.55
4123;BME280;2075;51.062;6.920;2023-07-31T13:54:53;92291.44;;;-144.48;64.09
4123;BME280;2075;51.062;6.920;2023-07-31T13:57:40;92187.88;;;-144.48;62.05
4123;BME280;2075;51.062;6.920;2023-07-31T14:00:27;92116.81;;;-144.48;58.10
4123;BME280;2075;51.062;6.920;2023-07-31T14:03:13;91992.97;;;-144.48;55.45
4123;BME280;2075;51.062;6.920;2023-07-31T14:06:00;92035.59;;;-144.48;56.50
4123;BME280;2075;51.062;6.920;2023-07-31T14:08:46;92157.41;;;-144.48;60.41
4123;BME280;2075;51.062;6.920;2023-07-31T14:11:32;92196.00;;;-144.48;60.64
4123;BME280;2075;51.062;6.920;2023-07-31T14:14:19;92210.22;;;-144.48;62.84
4123;BME280;2075;51.062;6.920;2023-07-31T14:17:05;92313.75;;;-144.48;63.81
4123;BME280;2075;51.062;6.920;2023-07-31T14:19:51;92462.00;;;-144.48;67.51
4123;BME280;2075;51.062;6.920;2023-07-31T14:22:37;92543.22;;;-144.48;70.71
4123;BME280;2075;51.062;6.920;2023-07-31T14:25:23;92632.56;;;-144.48;74.96
4123;BME280;2075;51.062;6.920;2023-07-31T14:28:09;92671.16;;;-144.48;77.17
4123;BME280;2075;51.062;6.920;2023-07-31T14:30:56;92845.81;;;-144.48;79.04
4123;BME280;2075;51.062;6.920;2023-07-31T14:33:42;92693.50;;;-144.48;80.14
4123;BME280;2075;51.062;6.920;2023-07-31T14:36:28;92713.78;;;-144.48;80.82